createdAt,value
2018-09-04T00:00:43.016Z,35.27
2018-09-04T00:03:11.471Z,28.33
2018-09-04T00:05:39.941Z,31.70
2018-09-04T00:08:08.219Z,28.97
2018-09-04T00:10:36.528Z,26.10
2018-09-04T00:13:04.800Z,34.80
2018-09-04T00:15:33.076Z,30.67
2018-09-04T00:18:01.365Z,25.93
2018-09-04T00:20:29.611Z,30.63
2018-09-04T00:22:57.905Z,29.90
2018-09-04T00:25:26.162Z,29.43
2018-09-04T00:27:54.439Z,31.40
2018-09-04T00:30:22.702Z,28.80
2018-09-04T00:32:50.951Z,34.30
2018-09-04T00:35:19.236Z,29.63
2018-09-04T00:37:47.531Z,26.13
2018-09-04T00:40:15.845Z,27.53
2018-09-04T00:42:44.100Z,32.27
2018-09-04T00:45:12.396Z,39.37
2018-09-04T00:47:40.724Z,32.37
2018-09-04T00:50:08.999Z,29.60
2018-09-04T00:52:37.288Z,28.20
2018-09-04T00:55:05.635Z,30.50
2018-09-04T00:57:33.836Z,33.83
2018-09-04T01:00:02.115Z,29.37
2018-09-04T01:02:30.376Z,28.40
2018-09-04T01:04:58.668Z,28.17
2018-09-04T01:07:26.950Z,30.67
2018-09-04T01:09:55.218Z,35.50
2018-09-04T01:12:23.549Z,33.70
2018-09-04T01:14:55.248Z,31.77
2018-09-04T01:17:23.676Z,27.17
2018-09-04T01:19:51.968Z,26.10
2018-09-04T01:22:20.285Z,29.30
2018-09-04T01:24:48.534Z,29.70
2018-09-04T01:27:16.827Z,24.87
2018-09-04T01:29:45.102Z,29.23
2018-09-04T01:32:13.426Z,32.53
2018-09-04T01:34:41.719Z,28.57
2018-09-04T01:37:10.025Z,29.80
2018-09-04T01:39:38.332Z,30.83
2018-09-04T01:42:06.594Z,31.07
2018-09-04T01:44:34.872Z,29.33
2018-09-04T01:47:03.744Z,26.63
2018-09-04T01:49:32.049Z,30.57
2018-09-04T01:52:00.307Z,28.30
2018-09-04T01:54:28.591Z,29.67
2018-09-04T01:56:56.877Z,34.77
2018-09-04T01:59:25.176Z,29.00
2018-09-04T02:01:53.435Z,36.10
2018-09-04T02:04:21.743Z,33.57
2018-09-04T02:06:50.050Z,29.43
2018-09-04T02:09:18.339Z,29.03
2018-09-04T02:11:46.608Z,26.70
2018-09-04T02:14:14.900Z,30.00
2018-09-04T02:16:43.149Z,30.27
2018-09-04T02:19:11.435Z,29.20
2018-09-04T02:21:39.711Z,25.80
2018-09-04T02:24:07.990Z,28.70
2018-09-04T02:26:36.275Z,31.37
2018-09-04T02:29:04.645Z,36.10
2018-09-04T02:31:32.933Z,33.37
2018-09-04T02:34:01.196Z,28.27
2018-09-04T02:36:29.497Z,34.60
2018-09-04T02:38:57.829Z,34.80
2018-09-04T02:41:26.072Z,31.53
2018-09-04T02:43:54.611Z,32.60
2018-09-04T02:46:22.892Z,38.33
2018-09-04T02:48:51.479Z,27.53
2018-09-04T02:51:19.762Z,30.37
2018-09-04T02:53:48.039Z,30.20
2018-09-04T02:56:16.342Z,30.13
2018-09-04T02:58:44.737Z,36.57
2018-09-04T03:01:13.003Z,28.43
2018-09-04T03:03:41.321Z,25.47
2018-09-04T03:06:09.631Z,27.90
2018-09-04T03:08:38.028Z,29.03
2018-09-04T03:11:06.308Z,32.53
2018-09-04T03:13:34.697Z,29.20
2018-09-04T03:16:02.891Z,40.37
2018-09-04T03:18:32.273Z,28.73
2018-09-04T03:21:00.585Z,35.30
2018-09-04T03:23:28.833Z,32.70
2018-09-04T03:25:57.102Z,29.27
2018-09-04T03:28:25.347Z,35.73
2018-09-04T03:30:53.673Z,30.07
2018-09-04T03:33:21.921Z,35.87
2018-09-04T03:35:50.159Z,29.50
2018-09-04T03:38:18.423Z,32.27
2018-09-04T03:40:46.687Z,29.37
2018-09-04T03:43:14.947Z,40.50
2018-09-04T03:45:43.183Z,29.13
2018-09-04T03:48:11.451Z,34.50
2018-09-04T03:50:40.226Z,32.53
2018-09-04T03:53:08.487Z,27.93
2018-09-04T03:55:36.758Z,32.40
2018-09-04T03:58:05.072Z,31.27
2018-09-04T04:00:33.320Z,35.73
2018-09-04T04:03:01.566Z,36.60
2018-09-04T04:05:29.824Z,42.53
2018-09-04T04:07:58.075Z,34.43
2018-09-04T04:10:26.309Z,31.77
2018-09-04T04:12:54.594Z,29.97
2018-09-04T04:15:22.818Z,35.40
2018-09-04T04:17:51.086Z,29.33
2018-09-04T04:20:19.343Z,37.00
2018-09-04T04:22:47.623Z,35.80
2018-09-04T04:25:15.871Z,30.43
2018-09-04T04:27:44.143Z,40.37
2018-09-04T04:30:12.426Z,31.90
2018-09-04T04:32:40.696Z,28.70
2018-09-04T04:35:09.070Z,33.73
2018-09-04T04:37:37.336Z,32.83
2018-09-04T04:40:06.196Z,34.63
2018-09-04T04:42:34.527Z,50.23
2018-09-04T04:45:02.780Z,31.90
2018-09-04T04:47:36.271Z,40.73
2018-09-04T04:50:04.496Z,32.43
2018-09-04T04:52:32.717Z,38.07
2018-09-04T04:55:00.993Z,41.03
2018-09-04T04:57:29.214Z,39.00
2018-09-04T04:59:57.460Z,36.70
2018-09-04T05:02:25.874Z,37.93
2018-09-04T05:04:54.112Z,40.20
2018-09-04T05:07:23.158Z,38.23
2018-09-04T05:09:51.465Z,38.27
2018-09-04T05:12:19.738Z,41.23
2018-09-04T05:14:47.994Z,38.03
2018-09-04T05:17:16.312Z,46.03
2018-09-04T05:19:44.543Z,42.13
2018-09-04T05:22:12.905Z,50.57
2018-09-04T05:24:41.374Z,52.90
2018-09-04T05:27:09.971Z,45.77
2018-09-04T05:29:38.216Z,42.50
2018-09-04T05:32:12.152Z,45.77
2018-09-04T05:34:40.414Z,47.00
2018-09-04T05:37:08.810Z,44.60
2018-09-04T05:39:37.047Z,57.00
2018-09-04T05:42:10.646Z,47.33
2018-09-04T05:44:38.924Z,45.13
2018-09-04T05:47:07.248Z,47.60
2018-09-04T05:49:35.545Z,40.53
2018-09-04T05:52:03.793Z,52.03
2018-09-04T05:54:32.047Z,51.47
2018-09-04T05:57:00.308Z,46.53
2018-09-04T05:59:28.531Z,53.30
2018-09-04T06:01:56.758Z,59.63
2018-09-04T06:04:25.028Z,45.17
2018-09-04T06:06:53.256Z,53.03
2018-09-04T06:09:21.489Z,53.13
2018-09-04T06:11:49.723Z,51.00
2018-09-04T06:14:17.978Z,45.50
2018-09-04T06:16:46.235Z,47.23
2018-09-04T06:19:14.462Z,51.03
2018-09-04T06:21:42.711Z,55.30
2018-09-04T06:24:10.971Z,50.43
2018-09-04T06:26:39.301Z,46.07
2018-09-04T06:29:07.575Z,47.87
2018-09-04T06:31:35.801Z,46.97
2018-09-04T06:34:04.090Z,58.40
2018-09-04T06:36:32.375Z,57.63
2018-09-04T06:39:00.567Z,59.07
2018-09-04T06:41:28.823Z,66.50
2018-09-04T06:43:57.071Z,70.63
2018-09-04T06:46:25.339Z,58.90
2018-09-04T06:48:53.583Z,67.30
2018-09-04T06:51:21.817Z,57.27
2018-09-04T06:53:50.043Z,60.33
2018-09-04T06:56:18.371Z,56.47
2018-09-04T06:58:46.648Z,72.37
2018-09-04T07:01:14.925Z,66.33
2018-09-04T07:03:43.183Z,72.23
2018-09-04T07:06:11.610Z,75.33
2018-09-04T07:08:39.777Z,76.33
2018-09-04T07:11:08.003Z,65.13
2018-09-04T07:13:36.275Z,72.70
2018-09-04T07:16:04.700Z,83.17
2018-09-04T07:18:32.973Z,77.73
2018-09-04T07:21:01.211Z,90.87
2018-09-04T07:23:29.574Z,80.17
2018-09-04T07:25:57.858Z,87.40
2018-09-04T07:28:26.164Z,89.63
2018-09-04T07:30:54.508Z,71.23
2018-09-04T07:33:22.803Z,81.47
2018-09-04T07:35:51.065Z,73.10
2018-09-04T07:38:19.354Z,64.53
2018-09-04T07:40:47.579Z,76.03
2018-09-04T07:43:15.895Z,75.37
2018-09-04T07:45:44.187Z,72.57
2018-09-04T07:48:12.935Z,68.50
2018-09-04T07:50:41.176Z,68.93
2018-09-04T07:53:09.436Z,61.90
2018-09-04T07:55:37.667Z,65.20
2018-09-04T07:58:05.932Z,61.70
2018-09-04T08:00:34.210Z,58.97
2018-09-04T08:03:02.472Z,63.27
2018-09-04T08:05:31.747Z,60.93
2018-09-04T08:08:00.024Z,54.27
2018-09-04T08:10:32.208Z,58.73
2018-09-04T08:13:00.516Z,54.10
2018-09-04T08:15:28.826Z,57.03
2018-09-04T08:17:57.098Z,51.53
2018-09-04T08:20:26.033Z,63.20
2018-09-04T08:22:55.337Z,57.73
2018-09-04T08:25:24.285Z,51.83
2018-09-04T08:27:52.662Z,51.30
2018-09-04T08:30:21.051Z,54.80
2018-09-04T08:32:49.472Z,50.37
2018-09-04T08:35:17.904Z,51.20
2018-09-04T08:37:46.228Z,56.60
2018-09-04T08:40:14.588Z,45.57
2018-09-04T08:42:42.826Z,47.17
2018-09-04T08:45:11.054Z,49.17
2018-09-04T08:47:39.426Z,47.70
2018-09-04T08:50:07.688Z,46.43
2018-09-04T08:52:35.971Z,44.90
2018-09-04T08:55:04.334Z,51.87
2018-09-04T08:57:32.619Z,50.73
2018-09-04T09:00:00.885Z,53.30
2018-09-04T09:02:29.147Z,51.63
2018-09-04T09:04:57.377Z,44.70
2018-09-04T09:07:25.746Z,46.13
2018-09-04T09:09:54.032Z,40.70
2018-09-04T09:12:22.267Z,53.50
2018-09-04T09:14:50.558Z,41.13
2018-09-04T09:17:18.838Z,40.60
2018-09-04T09:19:47.090Z,48.80
2018-09-04T09:22:15.365Z,45.10
2018-09-04T09:24:43.617Z,55.57
2018-09-04T09:27:12.380Z,39.17
2018-09-04T09:29:40.716Z,46.13
2018-09-04T09:32:08.955Z,37.83
2018-09-04T09:34:37.216Z,46.07
2018-09-04T09:37:05.523Z,43.33
2018-09-04T09:39:33.821Z,43.53
2018-09-04T09:42:02.063Z,48.77
2018-09-04T09:44:30.448Z,48.00
2018-09-04T09:47:01.585Z,43.93
2018-09-04T09:49:30.585Z,35.20
2018-09-04T09:51:58.890Z,36.70
2018-09-04T09:54:27.165Z,38.60
2018-09-04T09:56:55.498Z,41.50
2018-09-04T09:59:23.906Z,41.23
2018-09-04T10:01:53.120Z,35.83
2018-09-04T10:04:21.474Z,40.23
2018-09-04T10:06:49.815Z,34.33
2018-09-04T10:09:18.067Z,29.07
2018-09-04T10:11:46.324Z,31.53
2018-09-04T10:14:14.575Z,30.90
2018-09-04T10:16:42.827Z,25.30
2018-09-04T10:19:11.131Z,24.80
2018-09-04T10:21:39.403Z,31.20
2018-09-04T10:24:07.792Z,28.07
2018-09-04T10:26:36.200Z,30.73
2018-09-04T10:29:04.486Z,22.77
2018-09-04T10:31:32.793Z,27.03
2018-09-04T10:34:01.061Z,24.00
2018-09-04T10:36:29.501Z,25.33
2018-09-04T10:39:03.110Z,27.90
2018-09-04T10:41:31.385Z,21.90
2018-09-04T10:43:59.678Z,26.23
2018-09-04T10:46:27.918Z,25.53
2018-09-04T10:48:56.162Z,20.57
2018-09-04T10:51:24.427Z,21.27
2018-09-04T10:53:52.684Z,24.43
2018-09-04T10:56:21.015Z,24.07
2018-09-04T10:58:49.328Z,18.97
2018-09-04T11:01:17.603Z,21.20
2018-09-04T11:03:45.922Z,19.37
2018-09-04T11:06:14.159Z,21.10
2018-09-04T11:08:42.536Z,23.20
2018-09-04T11:11:11.303Z,25.33
2018-09-04T11:13:39.631Z,24.40
2018-09-04T11:16:07.875Z,17.00
2018-09-04T11:18:36.229Z,19.97
2018-09-04T11:21:04.471Z,19.63
2018-09-04T11:23:32.767Z,17.10
2018-09-04T11:26:01.058Z,19.60
2018-09-04T11:28:29.347Z,20.67
2018-09-04T11:30:57.810Z,19.00
2018-09-04T11:33:26.147Z,22.17
2018-09-04T11:35:54.531Z,23.53
2018-09-04T11:38:22.884Z,19.97
2018-09-04T11:40:51.184Z,19.87
2018-09-04T11:43:19.503Z,21.07
2018-09-04T11:45:47.860Z,21.07
2018-09-04T11:48:17.074Z,24.20
2018-09-04T11:50:45.607Z,19.80
2018-09-04T11:53:13.952Z,23.43
2018-09-04T11:55:42.239Z,27.20
2018-09-04T11:58:10.490Z,29.07
2018-09-04T12:00:43.818Z,23.90
2018-09-04T12:03:13.296Z,20.23
2018-09-04T12:05:41.732Z,23.73
2018-09-04T12:08:10.103Z,23.47
2018-09-04T12:10:39.618Z,19.93
2018-09-04T12:13:07.956Z,18.03
2018-09-04T12:15:40.246Z,19.80
2018-09-04T12:18:09.483Z,27.97
2018-09-04T12:20:49.684Z,16.63
2018-09-04T12:23:17.839Z,22.40
2018-09-04T12:25:47.394Z,25.20
2018-09-04T12:28:15.699Z,21.27
2018-09-04T12:30:44.045Z,21.43
2018-09-04T12:33:12.243Z,19.67
2018-09-04T12:35:40.513Z,18.20
2018-09-04T12:38:10.813Z,16.97
2018-09-04T12:40:39.085Z,18.77
2018-09-04T12:43:07.443Z,20.67
2018-09-04T12:45:41.045Z,19.37
2018-09-04T12:48:11.267Z,17.90
2018-09-04T12:50:40.162Z,22.40
2018-09-04T12:53:09.000Z,18.83
2018-09-04T12:55:37.255Z,20.73
2018-09-04T12:58:05.535Z,23.43
2018-09-04T13:00:33.791Z,20.90
2018-09-04T13:03:02.084Z,18.37
2018-09-04T13:05:30.365Z,21.07
2018-09-04T13:07:58.700Z,23.07
2018-09-04T13:10:26.943Z,19.50
2018-09-04T13:12:55.442Z,21.93
2018-09-04T13:15:23.802Z,24.10
2018-09-04T13:17:52.059Z,19.27
2018-09-04T13:20:20.375Z,18.60
2018-09-04T13:22:48.626Z,26.90
2018-09-04T13:25:17.146Z,21.20
2018-09-04T13:27:45.375Z,20.13
2018-09-04T13:30:13.659Z,22.90
2018-09-04T13:32:41.989Z,28.43
2018-09-04T13:35:10.247Z,23.27
2018-09-04T13:37:38.498Z,18.40
2018-09-04T13:40:06.751Z,20.17
2018-09-04T13:42:35.031Z,17.70
2018-09-04T13:45:03.305Z,22.37
2018-09-04T13:47:32.947Z,20.20
2018-09-04T13:50:01.187Z,19.33
2018-09-04T13:52:30.562Z,21.60
2018-09-04T13:54:58.936Z,24.50
2018-09-04T13:57:27.726Z,23.70
2018-09-04T13:59:56.045Z,24.00
2018-09-04T14:02:24.611Z,21.43
2018-09-04T14:04:52.932Z,20.50
2018-09-04T14:07:21.367Z,18.90
2018-09-04T14:09:49.678Z,18.70
2018-09-04T14:12:18.013Z,19.10
2018-09-04T14:14:46.298Z,17.63
2018-09-04T14:17:16.695Z,29.23
2018-09-04T14:19:45.003Z,17.50
2018-09-04T14:22:13.358Z,17.97
2018-09-04T14:24:41.697Z,17.33
2018-09-04T14:27:10.052Z,15.90
2018-09-04T14:29:53.968Z,22.10
2018-09-04T14:32:06.611Z,20.00
2018-09-04T14:37:17.961Z,22.50
2018-09-04T14:39:55.571Z,18.00
2018-09-04T14:42:14.324Z,18.10
2018-09-04T14:44:42.665Z,18.83
2018-09-04T14:47:10.991Z,17.30
2018-09-04T14:49:39.282Z,14.33
2018-09-04T14:52:07.546Z,16.23
2018-09-04T14:54:54.831Z,16.57
2018-09-04T14:57:23.130Z,16.83
2018-09-04T14:59:51.443Z,15.77
2018-09-04T15:02:19.836Z,13.17
2018-09-04T15:04:48.476Z,17.53
2018-09-04T15:07:16.784Z,26.37
2018-09-04T15:09:44.990Z,17.07
2018-09-04T15:12:13.382Z,18.13
2018-09-04T15:14:41.628Z,16.93
2018-09-04T15:17:09.991Z,17.00
2018-09-04T15:19:38.263Z,26.50
2018-09-04T15:22:06.584Z,19.50
2018-09-04T15:24:34.943Z,18.03
2018-09-04T15:27:03.365Z,24.50
2018-09-04T15:29:31.734Z,24.93
2018-09-04T15:32:00.234Z,30.50
2018-09-04T15:34:28.495Z,28.83
2018-09-04T15:36:56.941Z,27.17
2018-09-04T15:39:25.165Z,29.23
2018-09-04T15:41:53.493Z,32.23
2018-09-04T15:44:21.775Z,38.57
2018-09-04T15:46:50.038Z,48.67
2018-09-04T15:49:23.614Z,43.13
2018-09-04T15:51:51.839Z,45.93
2018-09-04T15:54:20.314Z,42.93
2018-09-04T15:56:48.694Z,34.30
2018-09-04T15:59:16.951Z,42.53
2018-09-04T16:01:45.254Z,45.63
2018-09-04T16:04:13.499Z,41.83
2018-09-04T16:06:41.739Z,49.23
2018-09-04T16:09:10.004Z,41.30
2018-09-04T16:11:38.244Z,38.37
2018-09-04T16:14:06.726Z,40.87
2018-09-04T16:16:35.032Z,48.07
2018-09-04T16:19:03.327Z,51.60
2018-09-04T16:21:31.622Z,45.37
2018-09-04T16:24:00.065Z,49.20
2018-09-04T16:26:28.310Z,53.63
2018-09-04T16:28:56.620Z,50.73
2018-09-04T16:31:24.880Z,54.27
2018-09-04T16:33:53.144Z,54.07
2018-09-04T16:36:21.401Z,56.60
2018-09-04T16:38:50.294Z,61.80
2018-09-04T16:41:18.754Z,64.37
2018-09-04T16:43:46.986Z,74.43
2018-09-04T16:46:15.338Z,59.67
2018-09-04T16:48:43.651Z,64.00
2018-09-04T16:51:11.983Z,60.77
2018-09-04T16:53:40.298Z,65.13
2018-09-04T16:56:08.826Z,65.80
2018-09-04T16:58:37.094Z,74.70
2018-09-04T17:01:05.454Z,60.83
2018-09-04T17:03:33.742Z,66.30
2018-09-04T17:06:01.999Z,68.10
2018-09-04T17:08:30.328Z,77.30
2018-09-04T17:10:58.598Z,69.73
2018-09-04T17:13:26.873Z,63.00
2018-09-04T17:15:55.201Z,65.67
2018-09-04T17:18:23.545Z,62.63
2018-09-04T17:20:51.834Z,73.77
2018-09-04T17:23:20.071Z,63.03
2018-09-04T17:25:48.370Z,62.63
2018-09-04T17:28:16.584Z,63.00
2018-09-04T17:30:44.888Z,64.07
2018-09-04T17:33:13.178Z,73.10
2018-09-04T17:35:41.457Z,59.23
2018-09-04T17:38:09.800Z,61.30
2018-09-04T17:40:38.060Z,62.13
2018-09-04T17:43:06.487Z,64.03
2018-09-04T17:45:34.894Z,65.20
2018-09-04T17:48:03.198Z,66.70
2018-09-04T17:50:31.485Z,64.20
2018-09-04T17:52:59.756Z,62.87
2018-09-04T17:55:28.074Z,62.30
2018-09-04T17:57:56.406Z,59.10
2018-09-04T18:00:24.776Z,63.57
2018-09-04T18:02:53.171Z,65.20
2018-09-04T18:05:21.464Z,60.80
2018-09-04T18:07:49.786Z,57.60
2018-09-04T18:10:18.305Z,63.73
2018-09-04T18:12:46.555Z,59.40
2018-09-04T18:15:14.877Z,56.67
2018-09-04T18:17:43.296Z,63.47
2018-09-04T18:20:11.575Z,58.43
2018-09-04T18:22:39.935Z,65.27
2018-09-04T18:25:08.272Z,57.20
2018-09-04T18:27:36.528Z,58.17
2018-09-04T18:30:05.204Z,54.43
2018-09-04T18:32:33.525Z,65.70
2018-09-04T18:35:01.811Z,71.37
2018-09-04T18:37:30.094Z,65.83
2018-09-04T18:39:58.414Z,63.13
2018-09-04T18:42:26.731Z,67.67
2018-09-04T18:44:55.135Z,63.00
2018-09-04T18:47:23.490Z,81.30
2018-09-04T18:49:51.827Z,70.10
2018-09-04T18:52:20.088Z,65.67
2018-09-04T18:54:48.346Z,61.47
2018-09-04T18:57:16.635Z,66.60
2018-09-04T18:59:44.988Z,66.17
2018-09-04T19:02:13.475Z,70.17
2018-09-04T19:04:41.796Z,82.07
2018-09-04T19:07:10.090Z,71.40
2018-09-04T19:09:38.388Z,71.93
2018-09-04T19:12:06.740Z,75.63
2018-09-04T19:14:35.107Z,76.60
2018-09-04T19:17:03.395Z,67.87
2018-09-04T19:19:31.696Z,69.57
2018-09-04T19:21:59.986Z,78.20
2018-09-04T19:24:28.379Z,73.50
2018-09-04T19:26:56.652Z,70.67
2018-09-04T19:29:24.895Z,69.63
2018-09-04T19:31:53.235Z,66.87
2018-09-04T19:34:21.462Z,67.93
2018-09-04T19:36:49.695Z,71.00
2018-09-04T19:39:18.031Z,69.70
2018-09-04T19:41:46.294Z,75.20
2018-09-04T19:44:14.573Z,66.90
2018-09-04T19:46:42.836Z,68.53
2018-09-04T19:49:16.858Z,81.57
2018-09-04T19:51:45.147Z,65.57
2018-09-04T19:54:13.476Z,65.17
2018-09-04T19:56:41.811Z,64.63
2018-09-04T19:59:10.107Z,85.50
2018-09-04T20:01:38.438Z,70.00
2018-09-04T20:04:06.751Z,72.50
2018-09-04T20:06:35.045Z,75.77
2018-09-04T20:09:03.910Z,65.73
2018-09-04T20:11:32.174Z,70.53
2018-09-04T20:14:00.420Z,69.73
2018-09-04T20:16:28.672Z,67.90
2018-09-04T20:18:56.935Z,66.23
2018-09-04T20:21:25.204Z,60.10
2018-09-04T20:23:53.459Z,62.83
2018-09-04T20:26:21.715Z,62.60
2018-09-04T20:28:49.966Z,61.23
2018-09-04T20:31:18.207Z,61.67
2018-09-04T20:33:46.469Z,64.20
2018-09-04T20:36:14.728Z,52.27
2018-09-04T20:38:43.016Z,60.73
2018-09-04T20:41:11.364Z,62.67
2018-09-04T20:43:39.659Z,56.97
2018-09-04T20:46:07.945Z,53.57
2018-09-04T20:48:36.266Z,62.13
2018-09-04T20:51:04.695Z,55.70
2018-09-04T20:53:32.974Z,58.03
2018-09-04T20:56:01.219Z,56.70
2018-09-04T20:58:40.855Z,68.97
2018-09-04T21:01:20.322Z,59.43
2018-09-04T21:04:00.013Z,63.30
2018-09-04T21:06:39.955Z,63.90
2018-09-04T21:09:21.088Z,62.87
2018-09-04T21:11:49.359Z,55.17
2018-09-04T21:14:17.600Z,54.43
2018-09-04T21:16:45.931Z,52.53
2018-09-04T21:19:14.147Z,63.03
2018-09-04T21:21:42.393Z,51.40
2018-09-04T21:24:10.622Z,50.00
2018-09-04T21:26:38.884Z,47.70
2018-09-04T21:29:07.955Z,45.03
2018-09-04T21:31:36.207Z,45.60
2018-09-04T21:34:04.495Z,44.33
2018-09-04T21:36:32.734Z,48.63
2018-09-04T21:39:00.992Z,46.73
2018-09-04T21:41:29.297Z,50.33
2018-09-04T21:43:59.021Z,44.10
2018-09-04T21:46:27.321Z,44.43
2018-09-04T21:48:55.578Z,49.90
2018-09-04T21:51:23.847Z,43.20
2018-09-04T21:53:52.343Z,42.87
2018-09-04T21:56:20.795Z,41.40
2018-09-04T21:58:49.073Z,46.70
2018-09-04T22:01:18.395Z,57.40
2018-09-04T22:03:47.334Z,38.30
2018-09-04T22:06:15.655Z,47.33
2018-09-04T22:08:44.077Z,47.43
2018-09-04T22:11:13.385Z,50.63
2018-09-04T22:13:41.824Z,49.87
2018-09-04T22:16:10.180Z,45.13
2018-09-04T22:18:38.465Z,42.87
2018-09-04T22:21:07.130Z,42.23
2018-09-04T22:23:35.891Z,42.10
2018-09-04T22:26:04.295Z,40.10
2018-09-04T22:28:32.562Z,37.40
2018-09-04T22:31:00.826Z,46.13
2018-09-04T22:33:29.097Z,48.43
2018-09-04T22:35:58.074Z,38.30
2018-09-04T22:38:26.298Z,39.10
2018-09-04T22:40:54.562Z,40.50
2018-09-04T22:43:22.804Z,41.90
2018-09-04T22:45:51.078Z,52.47
2018-09-04T22:48:19.312Z,39.60
2018-09-04T22:51:54.440Z,38.80
2018-09-04T22:54:22.723Z,35.20
2018-09-04T22:56:50.979Z,36.40
2018-09-04T22:59:19.352Z,35.63
2018-09-04T23:01:47.574Z,44.33
2018-09-04T23:04:15.823Z,49.07
2018-09-04T23:06:44.067Z,45.73
2018-09-04T23:09:12.378Z,47.50
2018-09-04T23:11:40.655Z,37.87
2018-09-04T23:14:08.943Z,37.10
2018-09-04T23:16:37.229Z,37.97
2018-09-04T23:19:05.585Z,37.20
2018-09-04T23:21:33.839Z,45.60
2018-09-04T23:24:02.131Z,37.13
2018-09-04T23:26:30.426Z,38.13
2018-09-04T23:28:58.696Z,40.00
2018-09-04T23:31:26.987Z,33.53
2018-09-04T23:33:55.222Z,35.13
2018-09-04T23:36:23.535Z,38.20
2018-09-04T23:38:51.772Z,33.40
2018-09-04T23:41:20.040Z,34.97
2018-09-04T23:43:48.302Z,39.30
2018-09-04T23:46:16.591Z,34.13
2018-09-04T23:48:44.884Z,41.33
2018-09-04T23:51:13.159Z,39.20
2018-09-04T23:53:41.383Z,40.57
2018-09-04T23:56:09.641Z,44.20
2018-09-04T23:58:37.947Z,38.20
